Time;durP1;ratioP1;P1;durP2;ratioP2;P2;SDS_P1;SDS_P2;PMS_P1;PMS_P2;Temp;Humidity;BMP_temperature;BMP_pressure;BME280_temperature;BME280_humidity;BME280_pressure;Samples;Min_cycle;Max_cycle;Signal;HPM_P1;HPM_P2
2021/12/09 00:00:01;;;;;;;43.75;19.05;;;;;;;4.44;63.04;97868.72;4497653;31;20143;-77
2021/12/09 00:02:29;;;;;;;42.65;17.58;;;;;;;4.41;63.15;97858.41;4498119;31;20363;-79
2021/12/09 00:04:56;;;;;;;42.05;17.85;;;;;;;4.38;63.28;97862.91;4497798;31;20164;-77
2021/12/09 00:07:23;;;;;;;44.72;18.20;;;;;;;4.42;63.20;97847.06;4498022;31;20128;-79
2021/12/09 00:09:50;;;;;;;42.20;17.33;;;;;;;4.45;63.36;97839.09;4483475;32;20555;-78
2021/12/09 00:12:15;;;;;;;40.75;18.92;;;;;;;4.46;63.14;97843.41;4497718;31;20371;-78
2021/12/09 00:14:41;;;;;;;41.53;18.40;;;;;;;4.50;63.00;97833.66;4497694;31;20083;-78
2021/12/09 00:17:08;;;;;;;44.15;18.65;;;;;;;4.43;63.28;97837.50;4488509;31;20115;-78
2021/12/09 00:19:36;;;;;;;42.17;18.98;;;;;;;4.51;62.85;97828.37;4486264;32;20467;-77
2021/12/09 00:22:04;;;;;;;45.53;18.33;;;;;;;4.53;62.83;97836.16;4487341;31;20084;-77
2021/12/09 00:24:30;;;;;;;44.67;19.23;;;;;;;4.59;62.74;97843.69;4487113;31;20443;-77
2021/12/09 00:26:55;;;;;;;46.00;18.58;;;;;;;4.51;62.83;97849.25;4487616;32;20115;-76
2021/12/09 00:29:20;;;;;;;43.55;18.17;;;;;;;4.49;62.76;97853.69;4486392;32;20125;-76
2021/12/09 00:31:49;;;;;;;42.10;18.40;;;;;;;4.35;63.19;97856.09;4487703;31;20080;-78
2021/12/09 00:34:18;;;;;;;45.42;19.55;;;;;;;4.42;63.15;97851.44;4486179;32;20100;-78
2021/12/09 00:36:56;;;;;;;44.42;19.58;;;;;;;4.45;62.99;97853.91;4485827;32;20113;-77
2021/12/09 00:39:22;;;;;;;43.43;18.23;;;;;;;4.51;62.89;97856.25;4487616;32;20076;-77
2021/12/09 00:41:48;;;;;;;46.67;17.75;;;;;;;4.41;63.05;97847.97;4486574;32;20114;-78
2021/12/09 00:44:13;;;;;;;48.97;20.02;;;;;;;4.44;63.02;97850.47;4487488;31;20462;-78
2021/12/09 00:46:38;;;;;;;49.40;19.30;;;;;;;4.51;62.97;97844.03;4486132;32;20105;-79
2021/12/09 00:49:05;;;;;;;46.97;18.05;;;;;;;4.57;62.75;97832.47;4487521;31;20128;-77
2021/12/09 00:51:31;;;;;;;44.85;19.00;;;;;;;4.49;62.80;97827.63;4487561;31;20110;-78
2021/12/09 00:53:56;;;;;;;46.88;19.87;;;;;;;4.52;62.51;97824.03;4485969;32;20104;-80
2021/12/09 00:56:22;;;;;;;45.72;18.70;;;;;;;4.59;62.49;97821.97;4487234;31;20148;-77
2021/12/09 00:58:49;;;;;;;45.45;19.60;;;;;;;4.56;62.57;97815.16;4486204;32;20103;-78
2021/12/09 01:01:15;;;;;;;46.83;20.27;;;;;;;4.62;62.27;97814.03;4487392;31;20160;-76
2021/12/09 01:03:41;;;;;;;46.78;19.37;;;;;;;4.59;62.29;97819.38;4487294;31;20101;-77
2021/12/09 01:06:07;;;;;;;45.67;18.10;;;;;;;4.57;62.38;97802.94;4487498;31;20155;-77
2021/12/09 01:08:32;;;;;;;49.00;19.83;;;;;;;4.64;62.13;97793.94;4487712;31;20104;-77
2021/12/09 01:10:58;;;;;;;47.03;20.02;;;;;;;4.53;62.37;97795.25;4487340;31;20073;-78
2021/12/09 01:13:23;;;;;;;48.75;20.30;;;;;;;4.39;62.73;97794.22;4486706;31;20116;-79
2021/12/09 01:15:49;;;;;;;48.17;20.00;;;;;;;4.41;62.69;97790.63;4487637;31;20428;-79
2021/12/09 01:18:14;;;;;;;48.25;20.40;;;;;;;4.42;62.77;97791.44;4487639;32;20493;-80
2021/12/09 01:20:40;;;;;;;49.38;18.75;;;;;;;4.39;62.77;97794.22;4487489;31;20107;-81
2021/12/09 01:23:06;;;;;;;48.97;20.05;;;;;;;4.43;62.75;97812.25;4487681;32;20124;-81
2021/12/09 01:25:36;;;;;;;46.20;19.70;;;;;;;4.34;62.83;97810.06;4487516;31;20111;-80
2021/12/09 01:28:07;;;;;;;54.15;19.27;;;;;;;4.30;63.04;97808.50;4486600;31;20107;-80
2021/12/09 01:30:33;;;;;;;51.95;19.62;;;;;;;4.38;62.89;97813.37;4487444;31;20420;-80
2021/12/09 01:32:58;;;;;;;45.88;19.00;;;;;;;4.29;63.07;97806.81;4487350;31;20766;-80
2021/12/09 01:35:30;;;;;;;50.03;18.42;;;;;;;4.20;63.41;97804.63;4472985;32;20108;-80
2021/12/09 01:37:59;;;;;;;47.92;19.58;;;;;;;4.24;63.52;97804.41;4486146;32;20119;-80
2021/12/09 01:40:26;;;;;;;51.72;19.87;;;;;;;4.26;63.37;97794.75;4485988;32;20227;-80
2021/12/09 01:42:52;;;;;;;50.25;20.42;;;;;;;4.03;63.84;97794.94;4487317;31;20100;-80
2021/12/09 01:45:17;;;;;;;52.83;20.08;;;;;;;4.22;63.43;97794.97;4487066;31;20458;-81
2021/12/09 01:47:43;;;;;;;54.28;21.48;;;;;;;4.25;63.41;97779.19;4487197;32;20145;-80
2021/12/09 01:50:09;;;;;;;46.50;18.75;;;;;;;4.25;63.39;97776.56;4487235;31;20076;-80
2021/12/09 01:52:35;;;;;;;54.97;21.73;;;;;;;4.24;63.48;97761.84;4486241;32;20143;-80
2021/12/09 01:55:02;;;;;;;48.78;20.75;;;;;;;4.30;63.25;97759.81;4487211;31;20115;-80
2021/12/09 01:57:28;;;;;;;48.83;19.17;;;;;;;4.29;63.03;97759.91;4487318;31;20119;-79
2021/12/09 01:59:53;;;;;;;50.78;20.65;;;;;;;4.20;63.08;97766.34;4487070;31;20496;-80
2021/12/09 02:02:19;;;;;;;47.00;18.77;;;;;;;4.26;62.98;97760.87;4485941;32;20480;-80
2021/12/09 02:04:44;;;;;;;48.33;18.70;;;;;;;4.26;63.19;97754.81;4485750;32;20122;-80
2021/12/09 02:07:10;;;;;;;48.38;19.45;;;;;;;4.33;62.83;97757.06;4487077;31;20446;-80
2021/12/09 02:09:36;;;;;;;49.78;20.77;;;;;;;4.37;62.54;97754.34;4486961;31;20092;-80
2021/12/09 02:12:03;;;;;;;46.90;19.60;;;;;;;4.26;62.83;97755.66;4485878;32;20131;-80
2021/12/09 02:14:28;;;;;;;46.33;18.85;;;;;;;4.15;63.09;97750.06;4487179;31;20096;-80
2021/12/09 02:16:53;;;;;;;52.80;19.77;;;;;;;4.05;63.34;97752.25;4485842;32;20415;-80
2021/12/09 02:19:19;;;;;;;46.03;18.90;;;;;;;4.16;63.17;97763.97;4485692;32;20076;-81
2021/12/09 02:21:44;;;;;;;47.08;19.02;;;;;;;4.22;62.93;97748.88;4486962;31;20131;-80
2021/12/09 02:24:14;;;;;;;49.33;18.92;;;;;;;4.21;62.77;97735.91;4485764;32;20421;-81
2021/12/09 02:26:43;;;;;;;46.10;17.55;;;;;;;4.26;62.56;97731.34;4485716;32;20168;-80
2021/12/09 02:29:11;;;;;;;43.08;17.55;;;;;;;4.18;62.66;97734.31;4486904;31;20420;-80
2021/12/09 02:31:37;;;;;;;45.35;19.90;;;;;;;4.07;62.57;97728.72;4472430;32;20173;-80
2021/12/09 02:34:04;;;;;;;48.67;18.87;;;;;;;4.04;62.83;97747.13;4472591;32;20521;-80
2021/12/09 02:36:35;;;;;;;46.80;17.50;;;;;;;4.07;62.71;97737.37;4486999;31;20459;-80
2021/12/09 02:39:01;;;;;;;42.90;16.30;;;;;;;4.06;62.76;97753.94;4485582;32;20960;-80
2021/12/09 02:41:27;;;;;;;45.35;16.92;;;;;;;4.12;62.77;97753.66;4486838;31;20111;-80
2021/12/09 02:43:56;;;;;;;49.28;18.23;;;;;;;3.96;63.24;97744.87;4485694;32;20170;-80
2021/12/09 02:46:24;;;;;;;41.40;16.50;;;;;;;3.79;63.99;97729.13;4486975;32;20142;-80
2021/12/09 02:48:49;;;;;;;47.10;16.58;;;;;;;3.82;63.88;97729.81;4486859;31;20084;-80
2021/12/09 02:51:15;;;;;;;41.08;15.82;;;;;;;3.84;64.02;97734.97;4486924;31;20127;-80
2021/12/09 02:53:41;;;;;;;40.25;16.02;;;;;;;3.70;64.61;97736.41;4486775;31;20402;-80
2021/12/09 02:56:06;;;;;;;40.15;16.98;;;;;;;3.87;64.13;97751.31;4486483;31;20139;-80
2021/12/09 02:58:32;;;;;;;43.08;16.67;;;;;;;3.98;63.81;97770.81;4486461;31;20080;-80
2021/12/09 03:00:57;;;;;;;42.28;16.85;;;;;;;3.84;64.07;97755.81;4486415;31;20356;-80
2021/12/09 03:03:24;;;;;;;39.22;16.17;;;;;;;3.87;64.11;97746.09;4486416;31;20104;-79
2021/12/09 03:05:55;;;;;;;41.85;15.90;;;;;;;3.78;64.49;97745.66;4485087;32;20084;-79
2021/12/09 03:08:32;;;;;;;40.60;16.05;;;;;;;3.77;64.52;97730.94;4486318;31;20436;-79
2021/12/09 03:11:01;;;;;;;40.75;16.17;;;;;;;3.79;64.50;97726.53;4485621;32;20288;-80
2021/12/09 03:13:27;;;;;;;42.45;15.90;;;;;;;3.75;64.72;97712.78;4486193;31;20123;-79
2021/12/09 03:15:52;;;;;;;41.53;16.02;;;;;;;3.78;64.60;97719.63;4486281;31;20142;-79
2021/12/09 03:18:18;;;;;;;39.00;15.15;;;;;;;3.71;64.95;97706.87;4485095;32;20345;-79
2021/12/09 03:20:43;;;;;;;40.40;15.00;;;;;;;3.70;65.00;97699.13;4486226;31;20088;-79
2021/12/09 03:23:09;;;;;;;41.10;15.70;;;;;;;3.67;65.20;97720.06;4484896;32;20154;-79
2021/12/09 03:25:34;;;;;;;43.75;17.33;;;;;;;3.65;65.42;97722.78;4486030;31;20112;-79
2021/12/09 03:27:59;;;;;;;37.17;16.33;;;;;;;3.60;65.70;97732.53;4486091;31;20084;-78
2021/12/09 03:30:25;;;;;;;39.65;16.30;;;;;;;3.63;65.55;97728.94;4486084;31;20161;-79
2021/12/09 03:32:51;;;;;;;38.75;15.63;;;;;;;3.72;65.30;97745.00;4484896;32;20152;-79
2021/12/09 03:35:16;;;;;;;42.65;16.45;;;;;;;3.87;64.99;97732.25;4484750;32;20389;-78
2021/12/09 03:37:42;;;;;;;47.45;16.37;;;;;;;3.84;65.04;97720.19;4484621;32;20480;-78
2021/12/09 03:40:09;;;;;;;39.55;15.23;;;;;;;3.96;64.84;97707.50;4485035;32;20104;-79
2021/12/09 03:42:35;;;;;;;41.42;16.73;;;;;;;3.75;65.20;97704.97;4471916;32;20468;-79
2021/12/09 03:45:02;;;;;;;38.95;15.95;;;;;;;3.72;65.34;97698.13;4486045;31;20110;-79
2021/12/09 03:47:30;;;;;;;39.80;16.35;;;;;;;3.71;65.42;97709.47;4484759;32;20488;-79
2021/12/09 03:49:56;;;;;;;45.78;16.33;;;;;;;3.85;65.19;97716.66;4484650;32;20131;-79
2021/12/09 03:52:21;;;;;;;44.05;16.50;;;;;;;3.83;65.20;97710.69;4487590;31;20149;-78
2021/12/09 03:54:48;;;;;;;41.78;16.30;;;;;;;4.01;64.73;97718.59;4486801;32;20100;-79
2021/12/09 03:57:13;;;;;;;33.13;13.48;;;;;;;4.09;64.33;97724.28;4486788;32;20084;-79
2021/12/09 03:59:40;;;;;;;33.40;13.57;;;;;;;4.09;64.10;97729.50;4487941;31;20114;-79
2021/12/09 04:02:06;;;;;;;38.15;14.73;;;;;;;4.02;64.21;97717.66;4487968;31;20115;-79
2021/12/09 04:04:32;;;;;;;36.58;14.65;;;;;;;4.05;64.10;97718.38;4486581;32;20081;-80
2021/12/09 04:06:57;;;;;;;39.20;15.27;;;;;;;3.82;64.93;97724.59;4486695;32;20115;-80
2021/12/09 04:09:23;;;;;;;36.88;14.32;;;;;;;3.91;64.71;97719.00;4487836;31;20134;-80
2021/12/09 04:11:50;;;;;;;38.15;14.95;;;;;;;3.83;64.97;97718.50;4486695;32;20372;-80
2021/12/09 04:14:15;;;;;;;30.70;12.82;;;;;;;3.78;65.06;97717.00;4486708;32;20114;-79
2021/12/09 04:16:41;;;;;;;36.88;14.15;;;;;;;3.87;64.74;97720.06;4487785;31;20123;-80
2021/12/09 04:19:08;;;;;;;36.97;14.25;;;;;;;3.93;64.54;97716.31;4486686;32;20104;-80
2021/12/09 04:21:34;;;;;;;36.38;13.75;;;;;;;3.96;64.54;97713.59;4487763;31;20123;-79
2021/12/09 04:24:00;;;;;;;34.95;13.75;;;;;;;3.95;64.51;97698.87;4487614;31;20080;-80
2021/12/09 04:26:25;;;;;;;35.30;14.63;;;;;;;4.00;64.51;97691.69;4487692;31;20368;-79
2021/12/09 04:28:50;;;;;;;34.17;15.00;;;;;;;4.01;64.26;97693.38;4486503;32;20436;-79
2021/12/09 04:31:17;;;;;;;32.17;13.20;;;;;;;4.06;64.14;97688.81;4487557;31;20093;-78
2021/12/09 04:33:43;;;;;;;32.65;12.90;;;;;;;4.04;64.04;97700.22;4487596;31;20364;-79
2021/12/09 04:36:10;;;;;;;32.45;12.88;;;;;;;3.99;64.25;97715.22;4486571;32;20103;-80
2021/12/09 04:38:36;;;;;;;33.03;13.68;;;;;;;4.04;64.12;97714.09;4487747;31;20104;-81
2021/12/09 04:41:01;;;;;;;37.10;13.40;;;;;;;4.05;64.00;97714.94;4487657;31;20092;-81
2021/12/09 04:43:27;;;;;;;34.95;14.10;;;;;;;4.08;63.99;97720.00;4487632;31;20084;-80
2021/12/09 04:45:52;;;;;;;34.13;13.35;;;;;;;4.14;63.70;97717.13;4486421;32;20149;-79
2021/12/09 04:48:18;;;;;;;32.40;12.77;;;;;;;4.04;64.03;97719.31;4487621;31;20108;-79
2021/12/09 04:50:44;;;;;;;33.95;13.88;;;;;;;4.17;63.45;97713.50;4487564;31;20096;-79
2021/12/09 04:53:10;;;;;;;32.88;13.55;;;;;;;4.23;63.35;97710.62;4487443;31;20080;-79
2021/12/09 04:55:36;;;;;;;30.37;12.40;;;;;;;3.98;63.79;97714.37;4487477;31;20139;-79
2021/12/09 04:58:02;;;;;;;34.72;13.05;;;;;;;4.09;63.48;97717.31;4487446;31;20084;-79
2021/12/09 05:00:29;;;;;;;30.67;12.73;;;;;;;4.17;63.50;97718.72;4487450;31;20096;-79
2021/12/09 05:03:07;;;;;;;30.75;12.73;;;;;;;4.07;63.58;97710.50;4486227;32;20164;-79
2021/12/09 05:05:38;;;;;;;33.42;13.32;;;;;;;4.05;63.51;97713.16;4486214;32;20107;-79
2021/12/09 05:08:05;;;;;;;33.15;13.23;;;;;;;4.02;63.74;97705.50;4487546;31;20097;-80
2021/12/09 05:10:36;;;;;;;28.77;12.10;;;;;;;4.08;63.57;97712.19;4487390;31;20250;-80
2021/12/09 05:13:03;;;;;;;34.90;13.10;;;;;;;4.14;63.42;97709.28;4486408;32;20114;-80
2021/12/09 05:15:29;;;;;;;33.25;13.75;;;;;;;4.28;63.01;97706.87;4487401;31;20472;-79
2021/12/09 05:17:54;;;;;;;31.40;11.77;;;;;;;4.43;62.29;97699.28;4487303;32;20111;-80
2021/12/09 05:20:20;;;;;;;32.17;12.52;;;;;;;4.30;62.52;97694.63;4487010;32;20088;-79
2021/12/09 05:22:45;;;;;;;28.25;11.88;;;;;;;4.32;62.53;97697.16;4487287;31;20111;-80
2021/12/09 05:25:11;;;;;;;28.52;12.05;;;;;;;4.24;62.58;97709.72;4487410;31;20085;-79
2021/12/09 05:27:37;;;;;;;31.73;13.77;;;;;;;4.30;62.40;97714.66;4486174;32;20422;-80
2021/12/09 05:30:07;;;;;;;28.95;12.57;;;;;;;4.33;62.45;97714.50;4487395;31;20100;-79
2021/12/09 05:32:33;;;;;;;30.35;12.82;;;;;;;4.21;62.89;97709.84;4487400;31;20092;-80
2021/12/09 05:34:58;;;;;;;31.48;12.68;;;;;;;4.38;62.24;97706.47;4486013;32;20122;-80
2021/12/09 05:37:25;;;;;;;28.60;12.95;;;;;;;4.40;62.23;97695.03;4487169;31;20380;-79
2021/12/09 05:39:52;;;;;;;30.52;12.85;;;;;;;4.37;62.03;97686.53;4486180;32;20119;-80
2021/12/09 05:42:20;;;;;;;30.02;12.82;;;;;;;4.42;61.90;97700.19;4487318;31;20092;-80
2021/12/09 05:44:46;;;;;;;30.50;13.55;;;;;;;4.26;62.35;97708.72;4486022;32;20440;-79
2021/12/09 05:47:12;;;;;;;32.28;13.18;;;;;;;4.10;62.85;97700.78;4487272;31;20128;-80
2021/12/09 05:49:41;;;;;;;34.20;13.62;;;;;;;4.17;62.79;97688.28;4485976;32;20493;-79
2021/12/09 05:52:07;;;;;;;32.20;14.50;;;;;;;4.30;62.61;97688.56;4487263;31;20096;-80
2021/12/09 05:54:33;;;;;;;34.42;13.62;;;;;;;4.26;62.75;97690.47;4485946;32;20388;-80
2021/12/09 05:56:58;;;;;;;34.60;14.52;;;;;;;4.10;63.22;97692.13;4486067;32;20108;-80
2021/12/09 05:59:25;;;;;;;36.75;14.80;;;;;;;4.11;63.28;97675.53;4487124;31;20440;-80
2021/12/09 06:01:50;;;;;;;32.72;14.38;;;;;;;3.98;63.93;97666.59;4487184;31;20116;-79
2021/12/09 06:04:16;;;;;;;38.53;15.52;;;;;;;4.07;63.81;97645.34;4486770;32;20072;-80
2021/12/09 06:06:41;;;;;;;39.28;15.88;;;;;;;3.78;64.96;97634.50;4485912;32;20145;-78
2021/12/09 06:09:08;;;;;;;40.33;17.52;;;;;;;3.78;65.15;97657.09;4487021;31;20100;-80
2021/12/09 06:11:35;;;;;;;40.30;15.55;;;;;;;3.76;65.31;97657.16;4487054;31;20092;-79
2021/12/09 06:14:01;;;;;;;40.28;16.30;;;;;;;3.79;65.28;97654.44;4485372;32;20522;-81
2021/12/09 06:16:27;;;;;;;41.10;15.65;;;;;;;3.89;65.18;97658.28;4485879;32;20116;-81
2021/12/09 06:18:52;;;;;;;39.15;17.17;;;;;;;3.88;65.20;97658.34;4486973;31;20144;-81
2021/12/09 06:21:19;;;;;;;38.80;17.20;;;;;;;3.90;65.17;97636.56;4486998;31;20383;-80
2021/12/09 06:23:45;;;;;;;40.17;15.35;;;;;;;4.05;64.74;97641.97;4485645;32;20081;-79
2021/12/09 06:26:11;;;;;;;43.50;16.90;;;;;;;4.02;64.67;97650.78;4487100;31;20097;-78
2021/12/09 06:28:38;;;;;;;36.95;15.60;;;;;;;3.92;64.92;97655.56;4486889;31;20115;-80
2021/12/09 06:31:04;;;;;;;35.13;14.90;;;;;;;3.99;64.40;97655.28;4485866;32;20148;-79
2021/12/09 06:33:30;;;;;;;33.17;14.93;;;;;;;3.90;64.57;97652.19;4486800;31;20121;-79
2021/12/09 06:35:55;;;;;;;43.40;15.48;;;;;;;3.74;64.89;97651.19;4486455;31;20272;-78
2021/12/09 06:38:22;;;;;;;38.38;15.40;;;;;;;3.70;65.23;97644.41;4485538;32;20145;-77
2021/12/09 06:40:47;;;;;;;37.00;15.27;;;;;;;3.70;65.54;97642.66;4487057;32;20488;-78
2021/12/09 06:43:13;;;;;;;35.30;14.43;;;;;;;3.78;65.25;97651.88;4486722;32;20096;-77
2021/12/09 06:45:39;;;;;;;36.22;14.65;;;;;;;3.82;64.94;97658.66;4486327;31;20474;-78
2021/12/09 06:48:04;;;;;;;33.80;14.20;;;;;;;3.89;64.66;97645.28;4486445;31;20096;-79
2021/12/09 06:50:30;;;;;;;33.72;12.98;;;;;;;3.60;65.15;97649.19;4486614;31;20084;-79
2021/12/09 06:52:55;;;;;;;32.65;14.35;;;;;;;3.74;64.73;97665.03;4486523;31;20165;-80
2021/12/09 06:55:21;;;;;;;31.83;14.48;;;;;;;3.78;64.56;97651.88;4486521;31;20123;-79
2021/12/09 06:57:47;;;;;;;33.67;14.23;;;;;;;3.85;64.29;97650.69;4485586;31;20114;-83
2021/12/09 07:00:16;;;;;;;33.42;14.15;;;;;;;4.00;63.90;97641.31;4470212;32;20136;-83
2021/12/09 07:02:44;;;;;;;32.90;14.75;;;;;;;3.82;64.37;97641.25;4482405;32;20257;-82
2021/12/09 07:05:10;;;;;;;34.30;13.70;;;;;;;3.72;64.84;97653.00;4485655;31;20115;-84
2021/12/09 07:07:36;;;;;;;35.15;15.30;;;;;;;3.89;64.44;97660.91;4479752;32;20125;-84
2021/12/09 07:10:02;;;;;;;31.10;13.60;;;;;;;3.92;64.33;97657.31;4477893;32;20333;-87
2021/12/09 07:12:28;;;;;;;35.30;13.73;;;;;;;3.96;64.13;97666.69;4474237;32;20089;-87
2021/12/09 07:14:54;;;;;;;32.95;14.13;;;;;;;4.13;63.45;97656.34;4483599;32;20120;-84
2021/12/09 07:17:20;;;;;;;35.97;13.77;;;;;;;4.06;63.69;97667.94;4485998;31;20118;-82
2021/12/09 07:19:46;;;;;;;36.28;13.02;;;;;;;4.12;63.42;97669.44;4485967;31;20114;-86
2021/12/09 07:22:11;;;;;;;31.20;13.20;;;;;;;4.21;63.18;97665.53;4485757;31;20127;-84
2021/12/09 07:24:37;;;;;;;32.88;13.85;;;;;;;4.13;63.57;97671.97;4485734;32;20115;-84
2021/12/09 07:27:03;;;;;;;36.75;13.43;;;;;;;4.28;63.06;97679.97;4486980;31;20116;-84
2021/12/09 07:29:28;;;;;;;30.98;12.37;;;;;;;4.29;62.71;97679.06;4487815;31;20164;-84
2021/12/09 07:31:54;;;;;;;31.25;13.07;;;;;;;3.97;63.74;97680.56;4487697;31;20431;-84
2021/12/09 07:34:21;;;;;;;29.75;12.13;;;;;;;4.05;63.43;97673.22;4487899;31;20112;-84
2021/12/09 07:36:47;;;;;;;34.42;12.95;;;;;;;3.89;64.01;97663.50;4494999;31;20122;-84
2021/12/09 07:39:13;;;;;;;34.08;13.30;;;;;;;3.52;65.16;97648.69;4502440;31;20367;-84
2021/12/09 07:41:38;;;;;;;34.17;13.10;;;;;;;3.73;64.78;97652.09;4503867;31;20432;-84
2021/12/09 07:44:05;;;;;;;32.45;12.55;;;;;;;3.78;64.97;97641.47;4502615;31;20127;-88
2021/12/09 07:46:32;;;;;;;31.30;12.32;;;;;;;3.99;64.56;97640.47;4502924;31;20123;-83
2021/12/09 07:48:58;;;;;;;32.53;11.88;;;;;;;3.96;64.42;97642.38;4502685;31;20622;-83
2021/12/09 07:51:24;;;;;;;30.83;12.27;;;;;;;3.90;64.68;97639.16;4502729;31;20217;-83
2021/12/09 07:53:49;;;;;;;32.17;12.40;;;;;;;4.02;64.35;97634.28;4503780;31;20089;-83
2021/12/09 07:56:14;;;;;;;30.25;13.10;;;;;;;4.17;63.89;97641.38;4503896;31;20128;-78
2021/12/09 07:58:40;;;;;;;31.15;12.50;;;;;;;4.27;63.68;97629.63;4502590;31;20426;-78
2021/12/09 08:01:05;;;;;;;31.58;13.20;;;;;;;4.35;63.00;97624.03;4503725;31;20106;-78
2021/12/09 08:03:31;;;;;;;30.37;12.02;;;;;;;4.25;63.64;97623.63;4503665;31;20111;-78
2021/12/09 08:05:57;;;;;;;34.33;13.10;;;;;;;4.34;63.00;97623.16;4503619;31;20084;-80
2021/12/09 08:08:22;;;;;;;30.50;11.18;;;;;;;4.17;63.48;97620.53;4503788;31;20076;-80
2021/12/09 08:10:48;;;;;;;31.45;12.60;;;;;;;4.33;63.05;97624.09;4503690;31;20463;-80
2021/12/09 08:13:13;;;;;;;27.77;11.23;;;;;;;4.31;63.03;97622.50;4502559;31;20165;-80
2021/12/09 08:15:45;;;;;;;28.73;11.55;;;;;;;4.28;63.41;97609.59;4502492;31;20115;-80
2021/12/09 08:20:47;;;;;;;27.05;11.35;;;;;;;4.38;63.20;97612.59;4503649;31;20075;-80
2021/12/09 08:23:13;;;;;;;32.97;12.60;;;;;;;4.23;63.05;97622.00;4503575;31;20116;-80
2021/12/09 08:25:39;;;;;;;30.50;12.18;;;;;;;4.07;63.53;97617.50;4503496;31;20100;-81
2021/12/09 08:28:04;;;;;;;32.42;12.55;;;;;;;4.22;63.57;97612.50;4502400;31;20337;-80
2021/12/09 08:30:30;;;;;;;30.02;12.10;;;;;;;4.32;63.01;97621.56;4503737;31;20100;-80
2021/12/09 08:32:56;;;;;;;27.45;11.63;;;;;;;4.30;62.94;97618.19;4503542;31;20356;-80
2021/12/09 08:35:21;;;;;;;29.83;12.37;;;;;;;4.28;63.31;97609.59;4503641;31;20088;-80
2021/12/09 08:37:48;;;;;;;32.17;13.43;;;;;;;4.19;63.63;97608.28;4503092;31;20080;-80
2021/12/09 08:40:15;;;;;;;31.77;12.35;;;;;;;4.24;63.42;97611.50;4502295;31;20098;-80
2021/12/09 08:42:40;;;;;;;34.72;12.95;;;;;;;4.05;64.04;97615.91;4503553;31;20139;-80
2021/12/09 08:45:09;;;;;;;29.52;12.27;;;;;;;4.03;64.26;97604.69;4502216;31;20145;-80
2021/12/09 08:47:35;;;;;;;29.58;12.27;;;;;;;4.13;63.74;97616.37;4503486;31;20110;-80
2021/12/09 08:50:00;;;;;;;30.10;12.50;;;;;;;4.24;63.51;97603.69;4488954;31;20113;-80
2021/12/09 08:52:26;;;;;;;28.98;12.43;;;;;;;4.45;63.31;97604.41;4502206;31;20100;-80
2021/12/09 08:54:51;;;;;;;30.60;11.85;;;;;;;4.39;62.99;97609.91;4503321;31;20152;-80
2021/12/09 08:57:19;;;;;;;32.17;12.43;;;;;;;4.46;62.55;97597.41;4502235;31;20131;-80
2021/12/09 08:59:44;;;;;;;33.70;12.40;;;;;;;4.40;62.82;97589.91;4502110;31;20084;-80
2021/12/09 09:02:11;;;;;;;32.40;12.65;;;;;;;4.34;62.89;97591.87;4503359;31;20119;-80
2021/12/09 09:04:36;;;;;;;28.20;11.52;;;;;;;4.47;62.80;97599.97;4503070;31;20096;-80
2021/12/09 09:07:03;;;;;;;32.80;12.88;;;;;;;4.52;62.59;97604.97;4503379;31;20345;-80
2021/12/09 09:09:34;;;;;;;30.23;12.20;;;;;;;4.23;62.95;97606.34;4502080;31;20135;-80
2021/12/09 09:12:04;;;;;;;29.42;11.75;;;;;;;4.36;62.93;97598.78;4503494;31;20092;-80
2021/12/09 09:14:29;;;;;;;27.17;11.52;;;;;;;4.48;62.50;97593.84;4503386;31;20605;-80
2021/12/09 09:16:55;;;;;;;34.67;12.15;;;;;;;4.52;62.44;97604.97;4503294;31;20125;-80
2021/12/09 09:19:20;;;;;;;34.40;12.10;;;;;;;4.36;62.78;97606.63;4502121;31;20397;-80
2021/12/09 09:21:47;;;;;;;28.92;11.57;;;;;;;4.45;63.19;97608.78;4503238;31;20116;-80
2021/12/09 09:24:12;;;;;;;31.70;12.75;;;;;;;4.46;63.19;97602.63;4503238;31;20455;-80
2021/12/09 09:26:38;;;;;;;32.47;12.88;;;;;;;4.36;64.00;97604.84;4503186;31;20087;-80
2021/12/09 09:29:04;;;;;;;32.03;13.02;;;;;;;4.46;63.76;97610.47;4488834;31;20286;-80
2021/12/09 09:31:32;;;;;;;30.98;12.23;;;;;;;4.52;63.31;97616.22;4503147;31;20092;-80
2021/12/09 09:34:00;;;;;;;;;;;;;;;4.41;63.81;97618.50;4503567;31;20156;-80
2021/12/09 09:36:26;;;;;;;28.20;11.35;;;;;;;4.46;63.28;97608.72;4503169;31;20455;-80
2021/12/09 09:38:56;;;;;;;27.98;11.15;;;;;;;4.55;63.28;97606.56;4503137;31;20156;-80
2021/12/09 09:41:25;;;;;;;28.48;11.43;;;;;;;4.68;63.20;97590.22;4501870;31;20131;-80
2021/12/09 09:46:28;;;;;;;31.05;12.20;;;;;;;4.75;62.94;97564.66;4501873;31;20118;-79
2021/12/09 09:48:55;;;;;;;29.77;12.50;;;;;;;4.70;63.27;97556.25;4501073;31;20110;-80
2021/12/09 09:51:22;;;;;;;33.92;11.68;;;;;;;4.77;63.45;97547.19;4502134;31;20606;-79
2021/12/09 09:53:48;;;;;;;28.48;12.00;;;;;;;4.83;62.82;97551.22;4503490;31;20501;-79
2021/12/09 09:56:18;;;;;;;32.65;12.80;;;;;;;4.75;63.15;97546.41;4502135;31;20482;-79
2021/12/09 09:58:47;;;;;;;30.92;12.18;;;;;;;4.84;63.35;97539.87;4503188;31;20114;-79
2021/12/09 10:01:14;;;;;;;30.60;12.20;;;;;;;4.89;63.44;97535.28;4503246;31;20583;-79
2021/12/09 10:03:45;;;;;;;32.25;12.27;;;;;;;5.06;62.71;97526.56;4502003;31;20104;-80
2021/12/09 10:06:11;;;;;;;29.15;12.10;;;;;;;5.13;62.22;97523.53;4502116;31;20114;-79
2021/12/09 10:08:36;;;;;;;31.27;12.48;;;;;;;5.20;62.02;97518.84;4503269;31;20088;-80
2021/12/09 10:11:03;;;;;;;33.17;13.07;;;;;;;5.29;62.13;97512.28;4503040;31;20127;-79
2021/12/09 10:13:30;;;;;;;31.08;12.60;;;;;;;5.41;61.74;97518.59;4503208;31;20096;-80
2021/12/09 10:15:56;;;;;;;30.33;11.80;;;;;;;5.39;61.05;97523.06;4502878;31;20095;-80
2021/12/09 10:18:43;;;;;;;27.90;11.25;;;;;;;5.47;61.72;97515.69;4502835;31;20151;-80
2021/12/09 10:21:11;;;;;;;29.50;12.75;;;;;;;5.32;61.82;97510.34;4502940;31;20092;-80
2021/12/09 10:23:45;;;;;;;32.20;12.80;;;;;;;5.32;62.25;97512.12;4502878;31;20467;-80
2021/12/09 10:26:30;;;;;;;29.08;11.98;;;;;;;5.44;62.00;97508.84;4502748;31;20083;-80
2021/12/09 10:29:24;;;;;;;27.73;12.27;;;;;;;5.47;61.69;97507.84;4501777;31;20087;-80
2021/12/09 10:31:57;;;;;;;29.52;11.90;;;;;;;5.51;61.45;97506.75;4501641;31;20096;-80
2021/12/09 10:34:36;;;;;;;29.45;12.00;;;;;;;5.56;61.06;97488.19;4502892;31;20485;-80
2021/12/09 10:37:31;;;;;;;35.05;12.10;;;;;;;5.59;61.13;97488.88;4502726;31;20462;-80
2021/12/09 10:39:58;;;;;;;28.58;11.55;;;;;;;5.62;61.34;97495.69;4501427;31;20375;-80
2021/12/09 10:42:28;;;;;;;27.75;11.02;;;;;;;5.58;61.11;97497.66;4502611;31;20146;-80
2021/12/09 10:44:59;;;;;;;28.35;11.30;;;;;;;5.58;61.25;97494.19;4502551;31;20114;-80
2021/12/09 10:47:50;;;;;;;29.08;12.57;;;;;;;5.52;61.27;97500.59;4502475;31;20469;-80
2021/12/09 10:50:38;;;;;;;30.23;12.13;;;;;;;5.45;61.22;97504.47;4488530;31;20084;-80
2021/12/09 10:55:52;;;;;;;27.95;11.88;;;;;;;5.50;61.64;97503.31;4502544;31;20239;-78
2021/12/09 10:58:20;;;;;;;30.75;11.55;;;;;;;5.48;61.20;97501.69;4502461;31;20087;-78
2021/12/09 11:00:52;;;;;;;;;;;;;;;5.35;61.73;97498.91;4501234;31;20088;-78
2021/12/09 11:03:21;;;;;;;28.33;11.02;;;;;;;5.49;61.55;97488.53;4502461;31;20017;-78
2021/12/09 11:06:09;;;;;;;29.23;11.07;;;;;;;5.43;61.57;97480.22;4500805;31;20096;-78
2021/12/09 11:08:49;;;;;;;29.63;12.48;;;;;;;5.51;61.34;97481.47;4502468;31;20106;-78
2021/12/09 11:11:18;;;;;;;30.75;12.02;;;;;;;5.46;61.61;97480.03;4502175;31;20498;-78
2021/12/09 11:13:51;;;;;;;25.33;10.70;;;;;;;5.54;nan;97490.06;4502169;31;20163;-77
2021/12/09 11:16:41;;;;;;;30.62;12.73;;;;;;;5.56;61.39;97477.75;4502164;31;20443;-77
2021/12/09 11:19:12;;;;;;;28.92;11.38;;;;;;;5.52;61.62;97484.91;4501087;31;20092;-77
2021/12/09 11:21:43;;;;;;;28.35;11.68;;;;;;;5.46;61.80;97472.19;4502139;31;20099;-77
2021/12/09 11:24:14;;;;;;;28.27;11.38;;;;;;;5.55;61.53;97474.31;4502067;31;20114;-77
2021/12/09 11:27:01;;;;;;;29.87;12.15;;;;;;;5.56;61.33;97473.38;4502107;31;20114;-78
2021/12/09 11:29:34;;;;;;;27.17;12.30;;;;;;;5.64;61.37;97462.47;4501978;31;20136;-77
2021/12/09 11:32:12;;;;;;;31.45;12.55;;;;;;;5.67;61.29;97447.47;4500741;31;20477;-77
2021/12/09 11:34:40;;;;;;;30.08;12.37;;;;;;;5.70;61.46;97449.94;4500815;31;20156;-77